Badsey, United Kingdom
Current Conditions -  °F | °C
As of 6:20 AM on Wednesday 22 Oct 2014 (Local Time) from EGBB Reporting Station
Clear Clear  
Wind Chill: 41°   Ceiling: Unl
Heat Index: 45°   Visibility: 6mi
Dew Point: 39°   Wind: 6mph
Humidity: 81%   Direction: 250°WSW
Pressure: 30.21"   Gusts: NA
Location:  52.09°N, 1.9°W
Report Text: EGBB 220520Z 25005KT CAVOK 07/04 Q1023
Loading
Personal Weather Stations






























Interactive Weather Map
Tropical Storm Tracking
New forecast layout! Learn more

10-Day Weather Forecast

Advertisements
Track Severe Weather on mobile